sensor_id;sensor_type;location;lat;lon;timestamp;pressure;altitude;pressure_sealevel;temperature
24201;BMP280;2801;50.972;7.856;2023-04-25T00:02:25;96870.19;;;4.23
24201;BMP280;2801;50.972;7.856;2023-04-25T00:04:52;96868.22;;;4.28
24201;BMP280;2801;50.972;7.856;2023-04-25T00:07:19;96870.88;;;4.28
24201;BMP280;2801;50.972;7.856;2023-04-25T00:09:46;96872.44;;;4.29
24201;BMP280;2801;50.972;7.856;2023-04-25T00:12:13;96886.28;;;4.26
24201;BMP280;2801;50.972;7.856;2023-04-25T00:14:41;96881.69;;;4.18
24201;BMP280;2801;50.972;7.856;2023-04-25T00:17:08;96881.19;;;4.16
24201;BMP280;2801;50.972;7.856;2023-04-25T00:19:35;96881.00;;;4.13
24201;BMP280;2801;50.972;7.856;2023-04-25T00:22:04;96887.69;;;4.10
24201;BMP280;2801;50.972;7.856;2023-04-25T00:24:32;96884.34;;;4.05
24201;BMP280;2801;50.972;7.856;2023-04-25T00:26:59;96887.56;;;4.02
24201;BMP280;2801;50.972;7.856;2023-04-25T00:29:25;96880.78;;;3.95
24201;BMP280;2801;50.972;7.856;2023-04-25T00:31:52;96892.97;;;3.97
24201;BMP280;2801;50.972;7.856;2023-04-25T00:34:19;96882.75;;;3.90
24201;BMP280;2801;50.972;7.856;2023-04-25T00:36:47;96894.16;;;3.90
24201;BMP280;2801;50.972;7.856;2023-04-25T00:39:14;96890.81;;;3.85
24201;BMP280;2801;50.972;7.856;2023-04-25T00:41:41;96893.75;;;3.83
24201;BMP280;2801;50.972;7.856;2023-04-25T00:44:09;96894.66;;;3.79
24201;BMP280;2801;50.972;7.856;2023-04-25T00:46:39;96890.50;;;3.73
24201;BMP280;2801;50.972;7.856;2023-04-25T00:49:06;96894.03;;;3.68
24201;BMP280;2801;50.972;7.856;2023-04-25T00:51:34;96883.91;;;3.57
24201;BMP280;2801;50.972;7.856;2023-04-25T00:54:01;96882.13;;;3.52
24201;BMP280;2801;50.972;7.856;2023-04-25T00:56:28;96879.56;;;3.47
24201;BMP280;2801;50.972;7.856;2023-04-25T00:58:56;96887.28;;;3.44
24201;BMP280;2801;50.972;7.856;2023-04-25T01:01:24;96893.16;;;3.41
24201;BMP280;2801;50.972;7.856;2023-04-25T01:03:53;96883.19;;;3.38
24201;BMP280;2801;50.972;7.856;2023-04-25T01:06:21;96884.22;;;3.37
24201;BMP280;2801;50.972;7.856;2023-04-25T01:08:49;96879.03;;;3.32
24201;BMP280;2801;50.972;7.856;2023-04-25T01:11:17;96888.25;;;3.34
24201;BMP280;2801;50.972;7.856;2023-04-25T01:13:44;96888.75;;;3.36
24201;BMP280;2801;50.972;7.856;2023-04-25T01:16:11;96893.78;;;3.38
24201;BMP280;2801;50.972;7.856;2023-04-25T01:18:40;96894.06;;;3.36
24201;BMP280;2801;50.972;7.856;2023-04-25T01:21:12;96893.34;;;3.31
24201;BMP280;2801;50.972;7.856;2023-04-25T01:23:42;96895.31;;;3.25
24201;BMP280;2801;50.972;7.856;2023-04-25T01:26:11;96893.22;;;3.22
24201;BMP280;2801;50.972;7.856;2023-04-25T01:28:39;96884.66;;;3.12
24201;BMP280;2801;50.972;7.856;2023-04-25T01:31:11;96890.53;;;3.09
24201;BMP280;2801;50.972;7.856;2023-04-25T01:33:38;96890.03;;;3.07
24201;BMP280;2801;50.972;7.856;2023-04-25T01:36:06;96904.13;;;3.02
24201;BMP280;2801;50.972;7.856;2023-04-25T01:38:33;96888.47;;;3.06
24201;BMP280;2801;50.972;7.856;2023-04-25T01:41:00;96906.91;;;3.11
24201;BMP280;2801;50.972;7.856;2023-04-25T01:43:27;96913.63;;;3.22
24201;BMP280;2801;50.972;7.856;2023-04-25T01:45:55;96910.53;;;3.33
24201;BMP280;2801;50.972;7.856;2023-04-25T01:48:22;96909.38;;;3.39
24201;BMP280;2801;50.972;7.856;2023-04-25T01:50:49;96911.47;;;3.56
24201;BMP280;2801;50.972;7.856;2023-04-25T01:53:16;96907.78;;;3.70
24201;BMP280;2801;50.972;7.856;2023-04-25T01:55:43;96903.06;;;3.81
24201;BMP280;2801;50.972;7.856;2023-04-25T01:58:10;96905.25;;;3.92
24201;BMP280;2801;50.972;7.856;2023-04-25T02:00:39;96892.88;;;3.88
24201;BMP280;2801;50.972;7.856;2023-04-25T02:03:08;96913.13;;;4.11
24201;BMP280;2801;50.972;7.856;2023-04-25T02:05:39;96910.56;;;4.20
24201;BMP280;2801;50.972;7.856;2023-04-25T02:08:08;96903.78;;;4.27
24201;BMP280;2801;50.972;7.856;2023-04-25T02:10:36;96904.84;;;4.40
24201;BMP280;2801;50.972;7.856;2023-04-25T02:13:03;96904.16;;;4.48
24201;BMP280;2801;50.972;7.856;2023-04-25T02:15:32;96912.19;;;4.56
24201;BMP280;2801;50.972;7.856;2023-04-25T02:17:59;96918.38;;;4.65
24201;BMP280;2801;50.972;7.856;2023-04-25T02:20:28;96916.91;;;4.73
24201;BMP280;2801;50.972;7.856;2023-04-25T02:22:56;96916.19;;;4.81
24201;BMP280;2801;50.972;7.856;2023-04-25T02:25:23;96909.38;;;4.88
24201;BMP280;2801;50.972;7.856;2023-04-25T02:27:50;96918.50;;;4.96
24201;BMP280;2801;50.972;7.856;2023-04-25T02:30:18;96896.66;;;4.99
24201;BMP280;2801;50.972;7.856;2023-04-25T02:32:45;96896.41;;;5.09
24201;BMP280;2801;50.972;7.856;2023-04-25T02:35:12;96895.81;;;5.12
24201;BMP280;2801;50.972;7.856;2023-04-25T02:37:40;96903.06;;;5.20
24201;BMP280;2801;50.972;7.856;2023-04-25T02:40:08;96898.53;;;5.20
24201;BMP280;2801;50.972;7.856;2023-04-25T02:42:35;96904.53;;;5.26
24201;BMP280;2801;50.972;7.856;2023-04-25T02:45:02;96899.88;;;5.31
24201;BMP280;2801;50.972;7.856;2023-04-25T02:47:29;96904.28;;;5.36
24201;BMP280;2801;50.972;7.856;2023-04-25T02:49:57;96905.56;;;5.38
24201;BMP280;2801;50.972;7.856;2023-04-25T02:52:23;96899.66;;;5.41
24201;BMP280;2801;50.972;7.856;2023-04-25T02:54:51;96899.00;;;5.44
24201;BMP280;2801;50.972;7.856;2023-04-25T02:57:18;96899.22;;;5.48
24201;BMP280;2801;50.972;7.856;2023-04-25T02:59:45;96897.00;;;5.50
24201;BMP280;2801;50.972;7.856;2023-04-25T03:02:12;96900.63;;;5.54
24201;BMP280;2801;50.972;7.856;2023-04-25T03:04:39;96901.00;;;5.61
24201;BMP280;2801;50.972;7.856;2023-04-25T03:07:06;96905.53;;;5.60
24201;BMP280;2801;50.972;7.856;2023-04-25T03:09:33;96890.66;;;5.59
24201;BMP280;2801;50.972;7.856;2023-04-25T03:12:01;96892.72;;;5.62
24201;BMP280;2801;50.972;7.856;2023-04-25T03:14:28;96886.94;;;5.60
24201;BMP280;2801;50.972;7.856;2023-04-25T03:16:55;96897.88;;;5.59
24201;BMP280;2801;50.972;7.856;2023-04-25T03:19:22;96895.22;;;5.59
24201;BMP280;2801;50.972;7.856;2023-04-25T03:21:49;96892.56;;;5.59
24201;BMP280;2801;50.972;7.856;2023-04-25T03:24:16;96903.00;;;5.55
24201;BMP280;2801;50.972;7.856;2023-04-25T03:26:43;96895.81;;;5.56
24201;BMP280;2801;50.972;7.856;2023-04-25T03:29:10;96901.00;;;5.61
24201;BMP280;2801;50.972;7.856;2023-04-25T03:31:37;96900.69;;;5.62
24201;BMP280;2801;50.972;7.856;2023-04-25T03:34:04;96893.81;;;5.61
24201;BMP280;2801;50.972;7.856;2023-04-25T03:36:31;96892.56;;;5.59
24201;BMP280;2801;50.972;7.856;2023-04-25T03:38:59;96891.41;;;5.51
24201;BMP280;2801;50.972;7.856;2023-04-25T03:41:26;96881.69;;;5.47
24201;BMP280;2801;50.972;7.856;2023-04-25T03:43:54;96893.69;;;5.44
24201;BMP280;2801;50.972;7.856;2023-04-25T03:46:21;96886.47;;;5.36
24201;BMP280;2801;50.972;7.856;2023-04-25T03:48:49;96890.44;;;5.25
24201;BMP280;2801;50.972;7.856;2023-04-25T03:51:15;96904.34;;;5.22
24201;BMP280;2801;50.972;7.856;2023-04-25T03:53:42;96903.31;;;5.10
24201;BMP280;2801;50.972;7.856;2023-04-25T03:56:09;96890.38;;;4.95
24201;BMP280;2801;50.972;7.856;2023-04-25T03:58:36;96899.19;;;5.04
24201;BMP280;2801;50.972;7.856;2023-04-25T04:01:03;96894.91;;;4.94
24201;BMP280;2801;50.972;7.856;2023-04-25T04:03:35;96884.44;;;4.76
24201;BMP280;2801;50.972;7.856;2023-04-25T04:06:05;96908.41;;;4.84
24201;BMP280;2801;50.972;7.856;2023-04-25T04:08:33;96909.59;;;4.78
24201;BMP280;2801;50.972;7.856;2023-04-25T04:11:00;96898.97;;;4.78
24201;BMP280;2801;50.972;7.856;2023-04-25T04:13:28;96902.03;;;4.85
24201;BMP280;2801;50.972;7.856;2023-04-25T04:15:55;96892.00;;;4.82
24201;BMP280;2801;50.972;7.856;2023-04-25T04:18:23;96901.41;;;4.88
24201;BMP280;2801;50.972;7.856;2023-04-25T04:20:50;96903.75;;;4.90
24201;BMP280;2801;50.972;7.856;2023-04-25T04:23:18;96891.41;;;4.85
24201;BMP280;2801;50.972;7.856;2023-04-25T04:25:46;96905.41;;;4.99
24201;BMP280;2801;50.972;7.856;2023-04-25T04:28:13;96899.63;;;4.97
24201;BMP280;2801;50.972;7.856;2023-04-25T04:30:40;96920.81;;;5.11
24201;BMP280;2801;50.972;7.856;2023-04-25T04:33:08;96913.94;;;5.10
24201;BMP280;2801;50.972;7.856;2023-04-25T04:35:35;96909.22;;;5.07
24201;BMP280;2801;50.972;7.856;2023-04-25T04:38:02;96911.28;;;5.10
24201;BMP280;2801;50.972;7.856;2023-04-25T04:40:29;96911.66;;;5.17
24201;BMP280;2801;50.972;7.856;2023-04-25T04:42:57;96916.84;;;5.22
24201;BMP280;2801;50.972;7.856;2023-04-25T04:45:24;96922.53;;;5.29
24201;BMP280;2801;50.972;7.856;2023-04-25T04:47:51;96907.97;;;5.26
24201;BMP280;2801;50.972;7.856;2023-04-25T04:50:18;96922.94;;;5.44
24201;BMP280;2801;50.972;7.856;2023-04-25T04:52:46;96905.72;;;5.42
24201;BMP280;2801;50.972;7.856;2023-04-25T04:55:13;96921.78;;;5.59
24201;BMP280;2801;50.972;7.856;2023-04-25T04:57:40;96927.94;;;5.68
24201;BMP280;2801;50.972;7.856;2023-04-25T05:00:08;96933.63;;;5.75
24201;BMP280;2801;50.972;7.856;2023-04-25T05:02:38;96939.31;;;5.82
24201;BMP280;2801;50.972;7.856;2023-04-25T05:05:07;96934.34;;;5.89
24201;BMP280;2801;50.972;7.856;2023-04-25T05:07:34;96931.00;;;6.05
24201;BMP280;2801;50.972;7.856;2023-04-25T05:10:02;96933.72;;;6.22
24201;BMP280;2801;50.972;7.856;2023-04-25T05:12:29;96923.25;;;6.26
24201;BMP280;2801;50.972;7.856;2023-04-25T05:14:57;96934.09;;;6.38
24201;BMP280;2801;50.972;7.856;2023-04-25T05:17:23;96938.97;;;6.44
24201;BMP280;2801;50.972;7.856;2023-04-25T05:19:50;96940.88;;;6.52
24201;BMP280;2801;50.972;7.856;2023-04-25T05:22:17;96940.75;;;6.66
24201;BMP280;2801;50.972;7.856;2023-04-25T05:24:44;96948.78;;;7.00
24201;BMP280;2801;50.972;7.856;2023-04-25T05:27:11;96957.13;;;7.41
24201;BMP280;2801;50.972;7.856;2023-04-25T05:29:38;96950.19;;;7.83
24201;BMP280;2801;50.972;7.856;2023-04-25T05:32:05;96947.75;;;8.07
24201;BMP280;2801;50.972;7.856;2023-04-25T05:34:32;96951.63;;;8.35
24201;BMP280;2801;50.972;7.856;2023-04-25T05:36:59;96953.94;;;8.45
24201;BMP280;2801;50.972;7.856;2023-04-25T05:39:27;96946.06;;;8.77
24201;BMP280;2801;50.972;7.856;2023-04-25T05:41:54;96949.31;;;9.32
24201;BMP280;2801;50.972;7.856;2023-04-25T05:44:21;96958.63;;;9.47
24201;BMP280;2801;50.972;7.856;2023-04-25T05:46:48;96951.41;;;9.47
24201;BMP280;2801;50.972;7.856;2023-04-25T05:49:15;96954.34;;;9.34
24201;BMP280;2801;50.972;7.856;2023-04-25T05:51:45;96967.44;;;9.27
24201;BMP280;2801;50.972;7.856;2023-04-25T05:54:12;96962.94;;;9.60
24201;BMP280;2801;50.972;7.856;2023-04-25T05:56:39;96956.47;;;9.93
24201;BMP280;2801;50.972;7.856;2023-04-25T05:59:06;96962.28;;;9.95
24201;BMP280;2801;50.972;7.856;2023-04-25T06:01:32;96969.81;;;9.81
24201;BMP280;2801;50.972;7.856;2023-04-25T06:03:59;96977.63;;;9.54
24201;BMP280;2801;50.972;7.856;2023-04-25T06:06:27;96975.59;;;9.30
24201;BMP280;2801;50.972;7.856;2023-04-25T06:08:54;96987.34;;;9.17
24201;BMP280;2801;50.972;7.856;2023-04-25T06:11:22;96994.38;;;9.01
24201;BMP280;2801;50.972;7.856;2023-04-25T06:13:49;96997.91;;;8.85
24201;BMP280;2801;50.972;7.856;2023-04-25T06:16:16;97001.16;;;8.61
24201;BMP280;2801;50.972;7.856;2023-04-25T06:18:43;97004.06;;;8.39
24201;BMP280;2801;50.972;7.856;2023-04-25T06:21:10;96994.53;;;8.21
24201;BMP280;2801;50.972;7.856;2023-04-25T06:23:37;97008.41;;;7.98
24201;BMP280;2801;50.972;7.856;2023-04-25T06:26:04;97002.44;;;7.75
24201;BMP280;2801;50.972;7.856;2023-04-25T06:28:31;96999.66;;;7.63
24201;BMP280;2801;50.972;7.856;2023-04-25T06:30:58;97008.56;;;7.58
24201;BMP280;2801;50.972;7.856;2023-04-25T06:33:25;97010.63;;;7.53
24201;BMP280;2801;50.972;7.856;2023-04-25T06:35:53;97009.69;;;7.49
24201;BMP280;2801;50.972;7.856;2023-04-25T06:38:20;97010.47;;;7.58
24201;BMP280;2801;50.972;7.856;2023-04-25T06:40:47;97009.19;;;7.55
24201;BMP280;2801;50.972;7.856;2023-04-25T06:43:14;97016.25;;;7.51
24201;BMP280;2801;50.972;7.856;2023-04-25T06:45:41;97034.28;;;7.46
24201;BMP280;2801;50.972;7.856;2023-04-25T06:48:10;97032.72;;;7.36
24201;BMP280;2801;50.972;7.856;2023-04-25T06:50:37;97039.00;;;7.23
24201;BMP280;2801;50.972;7.856;2023-04-25T06:53:04;97051.81;;;7.04
24201;BMP280;2801;50.972;7.856;2023-04-25T06:55:31;97050.19;;;6.86
24201;BMP280;2801;50.972;7.856;2023-04-25T06:57:58;97063.31;;;6.74
24201;BMP280;2801;50.972;7.856;2023-04-25T07:00:24;97063.41;;;6.61
24201;BMP280;2801;50.972;7.856;2023-04-25T07:02:51;97063.34;;;6.52
24201;BMP280;2801;50.972;7.856;2023-04-25T07:05:18;97071.78;;;6.46
24201;BMP280;2801;50.972;7.856;2023-04-25T07:07:45;97064.34;;;6.34
24201;BMP280;2801;50.972;7.856;2023-04-25T07:10:12;97060.72;;;6.30
24201;BMP280;2801;50.972;7.856;2023-04-25T07:12:39;97057.31;;;6.30
24201;BMP280;2801;50.972;7.856;2023-04-25T07:15:07;97062.66;;;6.38
24201;BMP280;2801;50.972;7.856;2023-04-25T07:17:36;97058.78;;;6.44
24201;BMP280;2801;50.972;7.856;2023-04-25T07:20:05;97065.38;;;6.47
24201;BMP280;2801;50.972;7.856;2023-04-25T07:22:32;97068.53;;;6.49
24201;BMP280;2801;50.972;7.856;2023-04-25T07:24:59;97069.03;;;6.59
24201;BMP280;2801;50.972;7.856;2023-04-25T07:27:26;97060.16;;;6.72
24201;BMP280;2801;50.972;7.856;2023-04-25T07:29:53;97062.28;;;6.92
24201;BMP280;2801;50.972;7.856;2023-04-25T07:32:20;97062.50;;;7.21
24201;BMP280;2801;50.972;7.856;2023-04-25T07:34:47;97064.91;;;7.48
24201;BMP280;2801;50.972;7.856;2023-04-25T07:37:14;97053.16;;;7.75
24201;BMP280;2801;50.972;7.856;2023-04-25T07:39:41;97057.19;;;8.24
24201;BMP280;2801;50.972;7.856;2023-04-25T07:42:08;97055.59;;;8.86
24201;BMP280;2801;50.972;7.856;2023-04-25T07:44:36;97062.94;;;9.55
24201;BMP280;2801;50.972;7.856;2023-04-25T07:47:06;97070.72;;;10.42
24201;BMP280;2801;50.972;7.856;2023-04-25T07:49:37;97055.72;;;11.34
24201;BMP280;2801;50.972;7.856;2023-04-25T07:52:05;97064.59;;;11.86
24201;BMP280;2801;50.972;7.856;2023-04-25T07:54:35;97051.34;;;12.21
24201;BMP280;2801;50.972;7.856;2023-04-25T07:57:02;97064.56;;;12.26
24201;BMP280;2801;50.972;7.856;2023-04-25T07:59:29;97056.94;;;12.71
24201;BMP280;2801;50.972;7.856;2023-04-25T08:01:56;97060.84;;;12.73
24201;BMP280;2801;50.972;7.856;2023-04-25T08:04:24;97057.72;;;13.02
24201;BMP280;2801;50.972;7.856;2023-04-25T08:06:52;97065.09;;;13.05
24201;BMP280;2801;50.972;7.856;2023-04-25T08:09:21;97061.97;;;12.88
24201;BMP280;2801;50.972;7.856;2023-04-25T08:11:48;97070.13;;;12.91
24201;BMP280;2801;50.972;7.856;2023-04-25T08:14:15;97074.50;;;12.53
24201;BMP280;2801;50.972;7.856;2023-04-25T08:16:42;97080.75;;;12.02
24201;BMP280;2801;50.972;7.856;2023-04-25T08:19:10;97083.41;;;11.74
24201;BMP280;2801;50.972;7.856;2023-04-25T08:21:37;97096.75;;;11.47
24201;BMP280;2801;50.972;7.856;2023-04-25T08:24:04;97098.44;;;11.15
24201;BMP280;2801;50.972;7.856;2023-04-25T08:26:31;97104.09;;;10.89
24201;BMP280;2801;50.972;7.856;2023-04-25T08:28:59;97108.53;;;10.73
24201;BMP280;2801;50.972;7.856;2023-04-25T08:31:26;97108.00;;;10.47
24201;BMP280;2801;50.972;7.856;2023-04-25T08:33:53;97113.59;;;10.22
24201;BMP280;2801;50.972;7.856;2023-04-25T08:36:21;97116.78;;;9.95
24201;BMP280;2801;50.972;7.856;2023-04-25T08:39:05;97125.13;;;9.73
24201;BMP280;2801;50.972;7.856;2023-04-25T08:41:32;97107.44;;;9.60
24201;BMP280;2801;50.972;7.856;2023-04-25T08:44:00;97125.13;;;9.73
24201;BMP280;2801;50.972;7.856;2023-04-25T08:46:29;97123.06;;;9.78
24201;BMP280;2801;50.972;7.856;2023-04-25T08:49:01;97094.84;;;9.60
24201;BMP280;2801;50.972;7.856;2023-04-25T08:51:32;97130.56;;;9.85
24201;BMP280;2801;50.972;7.856;2023-04-25T08:54:20;97129.22;;;9.79
24201;BMP280;2801;50.972;7.856;2023-04-25T08:57:02;97130.88;;;9.83
24201;BMP280;2801;50.972;7.856;2023-04-25T08:59:32;97136.06;;;9.88
24201;BMP280;2801;50.972;7.856;2023-04-25T09:02:01;97131.34;;;9.85
24201;BMP280;2801;50.972;7.856;2023-04-25T09:04:31;97141.28;;;9.85
24201;BMP280;2801;50.972;7.856;2023-04-25T09:06:58;97141.78;;;9.78
24201;BMP280;2801;50.972;7.856;2023-04-25T09:09:25;97145.44;;;9.74
24201;BMP280;2801;50.972;7.856;2023-04-25T09:11:54;97150.34;;;9.72
24201;BMP280;2801;50.972;7.856;2023-04-25T09:14:23;97154.78;;;9.68
24201;BMP280;2801;50.972;7.856;2023-04-25T09:19:40;97159.78;;;9.49
24201;BMP280;2801;50.972;7.856;2023-04-25T09:22:24;97156.22;;;9.36
24201;BMP280;2801;50.972;7.856;2023-04-25T09:24:51;97168.50;;;9.29
24201;BMP280;2801;50.972;7.856;2023-04-25T09:27:21;97169.81;;;9.23
24201;BMP280;2801;50.972;7.856;2023-04-25T09:29:59;97174.06;;;9.15
24201;BMP280;2801;50.972;7.856;2023-04-25T09:32:27;97169.84;;;9.06
24201;BMP280;2801;50.972;7.856;2023-04-25T09:34:57;97186.53;;;9.03
24201;BMP280;2801;50.972;7.856;2023-04-25T09:37:42;97183.72;;;8.99
24201;BMP280;2801;50.972;7.856;2023-04-25T09:40:09;97192.22;;;9.01
24201;BMP280;2801;50.972;7.856;2023-04-25T09:42:55;97191.69;;;9.16
24201;BMP280;2801;50.972;7.856;2023-04-25T09:45:22;97185.22;;;9.26
24201;BMP280;2801;50.972;7.856;2023-04-25T09:47:49;97199.75;;;9.45
24201;BMP280;2801;50.972;7.856;2023-04-25T09:50:17;97204.03;;;9.67
24201;BMP280;2801;50.972;7.856;2023-04-25T09:53:02;97199.09;;;9.86
24201;BMP280;2801;50.972;7.856;2023-04-25T09:55:30;97196.28;;;10.03
24201;BMP280;2801;50.972;7.856;2023-04-25T09:58:04;97195.47;;;10.31
24201;BMP280;2801;50.972;7.856;2023-04-25T10:00:33;97187.47;;;10.64
24201;BMP280;2801;50.972;7.856;2023-04-25T10:03:01;97201.66;;;10.97
24201;BMP280;2801;50.972;7.856;2023-04-25T10:05:34;97213.88;;;11.06
24201;BMP280;2801;50.972;7.856;2023-04-25T10:08:03;97211.19;;;11.06
24201;BMP280;2801;50.972;7.856;2023-04-25T10:10:33;97201.41;;;10.90
24201;BMP280;2801;50.972;7.856;2023-04-25T10:13:04;97208.97;;;10.76
24201;BMP280;2801;50.972;7.856;2023-04-25T10:15:35;97202.63;;;10.80
24201;BMP280;2801;50.972;7.856;2023-04-25T10:18:07;97195.72;;;10.91
24201;BMP280;2801;50.972;7.856;2023-04-25T10:20:56;97190.47;;;11.40
24201;BMP280;2801;50.972;7.856;2023-04-25T10:23:41;97184.75;;;12.53
24201;BMP280;2801;50.972;7.856;2023-04-25T10:26:09;97173.13;;;13.19
24201;BMP280;2801;50.972;7.856;2023-04-25T10:29:03;97170.94;;;13.09
24201;BMP280;2801;50.972;7.856;2023-04-25T10:31:31;97178.66;;;12.83
24201;BMP280;2801;50.972;7.856;2023-04-25T10:34:00;97190.47;;;12.51
24201;BMP280;2801;50.972;7.856;2023-04-25T10:36:32;97190.66;;;12.19
24201;BMP280;2801;50.972;7.856;2023-04-25T10:39:05;97204.00;;;12.03
24201;BMP280;2801;50.972;7.856;2023-04-25T10:41:58;97197.09;;;11.78
24201;BMP280;2801;50.972;7.856;2023-04-25T10:44:31;97208.94;;;11.65
24201;BMP280;2801;50.972;7.856;2023-04-25T10:47:01;97207.50;;;11.68
24201;BMP280;2801;50.972;7.856;2023-04-25T10:49:42;97201.69;;;11.78
24201;BMP280;2801;50.972;7.856;2023-04-25T10:52:15;97206.38;;;11.93
24201;BMP280;2801;50.972;7.856;2023-04-25T11:00:20;97201.66;;;11.90
24201;BMP280;2801;50.972;7.856;2023-04-25T11:02:59;97211.06;;;11.84
24201;BMP280;2801;50.972;7.856;2023-04-25T11:05:31;97217.34;;;12.00
24201;BMP280;2801;50.972;7.856;2023-04-25T11:08:31;97211.25;;;12.27
24201;BMP280;2801;50.972;7.856;2023-04-25T11:11:02;97213.47;;;12.25
24201;BMP280;2801;50.972;7.856;2023-04-25T11:13:29;97216.31;;;12.04
24201;BMP280;2801;50.972;7.856;2023-04-25T11:15:57;97220.16;;;11.67
24201;BMP280;2801;50.972;7.856;2023-04-25T11:18:42;97231.47;;;11.28
24201;BMP280;2801;50.972;7.856;2023-04-25T11:21:09;97223.44;;;10.95
24201;BMP280;2801;50.972;7.856;2023-04-25T11:23:37;97239.91;;;10.73
24201;BMP280;2801;50.972;7.856;2023-04-25T11:26:04;97240.59;;;10.50
24201;BMP280;2801;50.972;7.856;2023-04-25T11:28:31;97243.25;;;10.29
24201;BMP280;2801;50.972;7.856;2023-04-25T11:30:58;97242.72;;;10.15
24201;BMP280;2801;50.972;7.856;2023-04-25T11:33:26;97232.13;;;10.19
24201;BMP280;2801;50.972;7.856;2023-04-25T11:35:55;97236.91;;;10.34
24201;BMP280;2801;50.972;7.856;2023-04-25T11:38:25;97242.41;;;10.58
24201;BMP280;2801;50.972;7.856;2023-04-25T11:40:55;97235.25;;;10.82
24201;BMP280;2801;50.972;7.856;2023-04-25T11:43:22;97233.97;;;11.00
24201;BMP280;2801;50.972;7.856;2023-04-25T11:45:50;97235.19;;;11.36
24201;BMP280;2801;50.972;7.856;2023-04-25T11:48:20;97225.06;;;11.65
24201;BMP280;2801;50.972;7.856;2023-04-25T11:50:53;97204.25;;;11.74
24201;BMP280;2801;50.972;7.856;2023-04-25T11:53:20;97218.59;;;11.90
24201;BMP280;2801;50.972;7.856;2023-04-25T11:55:47;97218.91;;;12.01
24201;BMP280;2801;50.972;7.856;2023-04-25T11:58:14;97203.31;;;12.18
24201;BMP280;2801;50.972;7.856;2023-04-25T12:00:42;97184.63;;;12.22
24201;BMP280;2801;50.972;7.856;2023-04-25T12:03:18;97198.19;;;12.53
24201;BMP280;2801;50.972;7.856;2023-04-25T12:05:46;97219.66;;;12.65
24201;BMP280;2801;50.972;7.856;2023-04-25T12:08:15;97220.47;;;12.53
24201;BMP280;2801;50.972;7.856;2023-04-25T12:10:45;97233.19;;;12.29
24201;BMP280;2801;50.972;7.856;2023-04-25T12:13:25;97232.56;;;11.96
24201;BMP280;2801;50.972;7.856;2023-04-25T12:15:54;97244.19;;;11.76
24201;BMP280;2801;50.972;7.856;2023-04-25T12:18:26;97252.09;;;11.60
24201;BMP280;2801;50.972;7.856;2023-04-25T12:20:56;97254.50;;;11.62
24201;BMP280;2801;50.972;7.856;2023-04-25T12:23:27;97252.00;;;11.69
24201;BMP280;2801;50.972;7.856;2023-04-25T12:25:55;97261.09;;;11.64
24201;BMP280;2801;50.972;7.856;2023-04-25T12:28:25;97250.69;;;11.63
24201;BMP280;2801;50.972;7.856;2023-04-25T12:31:04;97254.50;;;11.74
24201;BMP280;2801;50.972;7.856;2023-04-25T12:33:37;97253.13;;;11.80
24201;BMP280;2801;50.972;7.856;2023-04-25T12:36:05;97258.75;;;11.75
24201;BMP280;2801;50.972;7.856;2023-04-25T12:38:40;97255.38;;;11.66
24201;BMP280;2801;50.972;7.856;2023-04-25T12:41:09;97260.06;;;11.69
24201;BMP280;2801;50.972;7.856;2023-04-25T12:43:36;97258.09;;;11.90
24201;BMP280;2801;50.972;7.856;2023-04-25T12:46:03;97254.84;;;12.20
24201;BMP280;2801;50.972;7.856;2023-04-25T12:48:30;97255.22;;;12.34
24201;BMP280;2801;50.972;7.856;2023-04-25T12:50:58;97254.22;;;12.39
24201;BMP280;2801;50.972;7.856;2023-04-25T12:53:25;97260.19;;;12.32
24201;BMP280;2801;50.972;7.856;2023-04-25T12:55:52;97259.06;;;12.21
24201;BMP280;2801;50.972;7.856;2023-04-25T12:58:19;97266.69;;;11.95
24201;BMP280;2801;50.972;7.856;2023-04-25T13:00:46;97276.06;;;11.65
24201;BMP280;2801;50.972;7.856;2023-04-25T13:03:14;97275.31;;;11.32
24201;BMP280;2801;50.972;7.856;2023-04-25T13:05:42;97284.53;;;11.10
24201;BMP280;2801;50.972;7.856;2023-04-25T13:08:09;97280.56;;;10.96
24201;BMP280;2801;50.972;7.856;2023-04-25T13:10:36;97283.44;;;10.91
24201;BMP280;2801;50.972;7.856;2023-04-25T13:13:05;97277.75;;;10.92
24201;BMP280;2801;50.972;7.856;2023-04-25T13:15:32;97272.97;;;10.98
24201;BMP280;2801;50.972;7.856;2023-04-25T13:17:59;97276.88;;;11.00
24201;BMP280;2801;50.972;7.856;2023-04-25T13:20:26;97276.47;;;11.10
24201;BMP280;2801;50.972;7.856;2023-04-25T13:22:53;97275.53;;;11.27
24201;BMP280;2801;50.972;7.856;2023-04-25T13:25:20;97281.56;;;11.36
24201;BMP280;2801;50.972;7.856;2023-04-25T13:27:48;97282.84;;;11.51
24201;BMP280;2801;50.972;7.856;2023-04-25T13:30:15;97293.09;;;11.69
24201;BMP280;2801;50.972;7.856;2023-04-25T13:32:42;97291.09;;;11.78
24201;BMP280;2801;50.972;7.856;2023-04-25T13:35:12;97289.19;;;11.79
24201;BMP280;2801;50.972;7.856;2023-04-25T13:37:40;97295.44;;;11.71
24201;BMP280;2801;50.972;7.856;2023-04-25T13:40:10;97294.94;;;11.57
24201;BMP280;2801;50.972;7.856;2023-04-25T13:42:38;97293.47;;;11.59
24201;BMP280;2801;50.972;7.856;2023-04-25T13:45:07;97291.44;;;11.77
24201;BMP280;2801;50.972;7.856;2023-04-25T13:47:34;97287.06;;;11.96
24201;BMP280;2801;50.972;7.856;2023-04-25T13:50:02;97298.50;;;12.05
24201;BMP280;2801;50.972;7.856;2023-04-25T13:52:30;97304.63;;;12.06
24201;BMP280;2801;50.972;7.856;2023-04-25T13:54:58;97294.69;;;12.06
24201;BMP280;2801;50.972;7.856;2023-04-25T13:57:25;97298.38;;;12.02
24201;BMP280;2801;50.972;7.856;2023-04-25T13:59:52;97292.44;;;11.96
24201;BMP280;2801;50.972;7.856;2023-04-25T14:02:20;97304.53;;;11.90
24201;BMP280;2801;50.972;7.856;2023-04-25T14:04:47;97307.88;;;11.75
24201;BMP280;2801;50.972;7.856;2023-04-25T14:07:14;97312.97;;;11.56
24201;BMP280;2801;50.972;7.856;2023-04-25T14:09:45;97315.38;;;11.37
24201;BMP280;2801;50.972;7.856;2023-04-25T14:12:12;97313.50;;;11.17
24201;BMP280;2801;50.972;7.856;2023-04-25T14:14:39;97312.09;;;10.99
24201;BMP280;2801;50.972;7.856;2023-04-25T14:17:07;97319.09;;;10.91
24201;BMP280;2801;50.972;7.856;2023-04-25T14:19:34;97315.16;;;10.89
24201;BMP280;2801;50.972;7.856;2023-04-25T14:22:02;97312.03;;;10.87
24201;BMP280;2801;50.972;7.856;2023-04-25T14:24:29;97311.44;;;10.81
24201;BMP280;2801;50.972;7.856;2023-04-25T14:26:56;97320.00;;;10.75
24201;BMP280;2801;50.972;7.856;2023-04-25T14:29:23;97331.50;;;10.55
24201;BMP280;2801;50.972;7.856;2023-04-25T14:31:49;97335.47;;;10.49
24201;BMP280;2801;50.972;7.856;2023-04-25T14:34:17;97330.03;;;10.37
24201;BMP280;2801;50.972;7.856;2023-04-25T14:36:44;97332.41;;;10.38
24201;BMP280;2801;50.972;7.856;2023-04-25T14:39:12;97330.69;;;10.34
24201;BMP280;2801;50.972;7.856;2023-04-25T14:41:40;97333.53;;;10.37
24201;BMP280;2801;50.972;7.856;2023-04-25T14:44:07;97333.78;;;10.44
24201;BMP280;2801;50.972;7.856;2023-04-25T14:46:35;97326.16;;;10.55